createdAt,value
2023-04-12T00:00:54.492Z,22.97
2023-04-12T00:03:27.059Z,22.86
2023-04-12T00:05:57.917Z,22.59
2023-04-12T00:08:34.604Z,22.61
2023-04-12T00:11:06.143Z,22.70
2023-04-12T00:13:37.765Z,22.76
2023-04-12T00:16:09.347Z,22.89
2023-04-12T00:18:40.116Z,22.98
2023-04-12T00:21:11.949Z,22.97
2023-04-12T00:23:43.202Z,22.97
2023-04-12T00:26:14.138Z,22.79
2023-04-12T00:28:48.406Z,22.67
2023-04-12T00:31:19.161Z,22.52
2023-04-12T00:33:50.236Z,22.17
2023-04-12T00:36:20.628Z,22.01
2023-04-12T00:38:51.106Z,22.07
2023-04-12T00:41:21.143Z,22.10
2023-04-12T00:43:51.234Z,22.06
2023-04-12T00:46:22.053Z,22.00
2023-04-12T00:48:54.894Z,21.95
2023-04-12T00:51:26.671Z,21.90
2023-04-12T00:54:00.997Z,21.93
2023-04-12T00:56:33.473Z,21.83
2023-04-12T00:59:03.686Z,21.88
2023-04-12T01:01:34.293Z,21.89
2023-04-12T01:04:05.719Z,21.86
2023-04-12T01:07:05.549Z,21.93
2023-04-12T01:09:46.141Z,21.80
2023-04-12T01:12:31.695Z,21.77
2023-04-12T01:15:13.399Z,21.82
2023-04-12T01:17:53.979Z,21.74
2023-04-12T01:20:29.948Z,21.83
2023-04-12T01:23:26.751Z,22.00
2023-04-12T01:26:11.767Z,21.92
2023-04-12T01:28:45.856Z,21.93
2023-04-12T01:31:16.830Z,21.88
2023-04-12T01:33:48.893Z,21.86
2023-04-12T01:36:24.294Z,21.74
2023-04-12T01:38:56.074Z,21.60
2023-04-12T01:41:26.370Z,21.45
2023-04-12T01:43:57.028Z,21.31
2023-04-12T01:46:27.424Z,21.36
2023-04-12T01:48:58.138Z,21.46
2023-04-12T01:51:55.924Z,21.47
2023-04-12T01:54:40.418Z,21.52
2023-04-12T01:57:12.423Z,21.60
2023-04-12T01:59:45.933Z,21.54
2023-04-12T02:02:16.397Z,21.54
2023-04-12T02:04:48.492Z,21.51
2023-04-12T02:07:22.401Z,21.46
2023-04-12T02:09:52.907Z,21.32
2023-04-12T02:12:24.718Z,21.36
2023-04-12T02:14:55.142Z,21.33
2023-04-12T02:17:25.725Z,21.25
2023-04-12T02:19:56.413Z,21.28
2023-04-12T02:22:26.766Z,21.27
2023-04-12T02:24:57.206Z,21.27
2023-04-12T02:27:27.436Z,21.22
2023-04-12T02:29:59.780Z,21.23
2023-04-12T02:32:32.031Z,21.04
2023-04-12T02:35:04.627Z,20.93
2023-04-12T02:37:34.786Z,20.91
2023-04-12T02:40:07.757Z,20.88
2023-04-12T02:42:39.361Z,21.01
2023-04-12T02:45:12.479Z,21.12
2023-04-12T02:47:43.647Z,21.02
2023-04-12T02:50:14.870Z,21.13
2023-04-12T02:52:54.859Z,21.28
2023-04-12T02:55:26.830Z,21.38
2023-04-12T02:57:56.924Z,21.52
2023-04-12T03:00:28.712Z,21.43
2023-04-12T03:03:04.994Z,21.57
2023-04-12T03:05:35.538Z,21.58
2023-04-12T03:08:05.706Z,21.63
2023-04-12T03:10:53.593Z,21.55
2023-04-12T03:13:24.530Z,21.35
2023-04-12T03:16:00.323Z,21.46
2023-04-12T03:18:36.705Z,21.65
2023-04-12T03:21:07.410Z,21.33
2023-04-12T03:23:37.519Z,21.06
2023-04-12T03:26:21.459Z,20.84
2023-04-12T03:29:02.582Z,20.79
2023-04-12T03:31:35.137Z,20.62
2023-04-12T03:34:09.420Z,20.61
2023-04-12T03:36:44.400Z,20.53
2023-04-12T03:39:23.376Z,20.48
2023-04-12T03:41:54.834Z,20.71
2023-04-12T03:44:30.456Z,20.81
2023-04-12T03:47:02.364Z,21.12
2023-04-12T03:49:39.622Z,21.10
2023-04-12T03:52:15.665Z,20.92
2023-04-12T03:54:47.852Z,21.02
2023-04-12T03:57:27.216Z,21.07
2023-04-12T03:59:57.254Z,20.87
2023-04-12T04:02:32.895Z,21.02
2023-04-12T04:05:05.152Z,20.84
2023-04-12T04:07:35.587Z,20.80
2023-04-12T04:10:06.873Z,20.72
2023-04-12T04:12:41.115Z,20.68
2023-04-12T04:15:16.558Z,20.95
2023-04-12T04:17:49.358Z,20.99
2023-04-12T04:20:22.284Z,21.03
2023-04-12T04:22:54.614Z,20.98
2023-04-12T04:25:31.027Z,20.97
2023-04-12T04:28:05.076Z,20.81
2023-04-12T04:30:39.951Z,20.78
2023-04-12T04:33:19.762Z,20.71
2023-04-12T04:35:50.257Z,20.78
2023-04-12T04:38:27.390Z,20.79
2023-04-12T04:41:06.560Z,20.98
2023-04-12T04:43:49.895Z,21.17
2023-04-12T04:46:24.902Z,20.95
2023-04-12T04:48:56.530Z,20.95
2023-04-12T04:51:27.049Z,20.98
2023-04-12T04:53:58.979Z,21.15
2023-04-12T04:56:29.303Z,21.08
2023-04-12T04:59:00.164Z,21.15
2023-04-12T05:01:33.117Z,21.09
2023-04-12T05:04:06.009Z,21.04
2023-04-12T05:06:36.472Z,20.95
2023-04-12T05:09:08.715Z,20.89
2023-04-12T05:11:44.859Z,20.81
2023-04-12T05:14:16.028Z,20.79
2023-04-12T05:16:46.169Z,20.84
2023-04-12T05:19:16.689Z,20.78
2023-04-12T05:21:46.804Z,20.89
2023-04-12T05:24:17.442Z,20.78
2023-04-12T05:26:48.400Z,20.89
2023-04-12T05:29:18.839Z,21.11
2023-04-12T05:31:49.254Z,21.08
2023-04-12T05:34:22.693Z,21.06
2023-04-12T05:36:55.991Z,21.20
2023-04-12T05:39:28.762Z,20.92
2023-04-12T05:41:58.979Z,20.78
2023-04-12T05:44:29.792Z,20.72
2023-04-12T05:46:59.978Z,20.55
2023-04-12T05:49:33.787Z,20.63
2023-04-12T05:52:08.405Z,20.88
2023-04-12T05:54:40.373Z,20.68
2023-04-12T05:57:15.110Z,20.70
2023-04-12T05:59:45.810Z,20.58
2023-04-12T06:02:15.935Z,20.59
2023-04-12T06:04:50.103Z,20.83
2023-04-12T06:07:22.339Z,21.08
2023-04-12T06:09:52.825Z,21.29
2023-04-12T06:12:25.246Z,21.45
2023-04-12T06:14:55.598Z,21.54
2023-04-12T06:17:26.069Z,21.62
2023-04-12T06:19:56.598Z,21.67
2023-04-12T06:22:27.127Z,21.64
2023-04-12T06:24:57.622Z,21.81
2023-04-12T06:27:28.591Z,21.84
2023-04-12T06:29:59.375Z,21.79
2023-04-12T06:32:29.899Z,21.87
2023-04-12T06:35:03.045Z,21.98
2023-04-12T06:37:33.187Z,21.81
2023-04-12T06:40:03.627Z,21.58
2023-04-12T06:42:33.628Z,21.74
2023-04-12T06:45:04.019Z,21.67
2023-04-12T06:47:34.480Z,21.68
2023-04-12T06:50:05.154Z,21.79
2023-04-12T06:52:35.232Z,21.73
2023-04-12T06:55:06.072Z,21.66
2023-04-12T06:57:36.125Z,21.51
2023-04-12T07:00:07.057Z,21.40
2023-04-12T07:02:37.247Z,21.34
2023-04-12T07:05:08.172Z,21.14
2023-04-12T07:07:38.218Z,21.33
2023-04-12T07:10:09.465Z,21.38
2023-04-12T07:12:39.504Z,21.40
2023-04-12T07:15:10.913Z,21.14
2023-04-12T07:17:40.963Z,21.02
2023-04-12T07:20:12.345Z,21.09
2023-04-12T07:22:42.417Z,21.10
2023-04-12T07:25:12.269Z,20.91
2023-04-12T07:27:42.719Z,21.08
2023-04-12T07:30:13.190Z,21.24
2023-04-12T07:32:43.730Z,21.05
2023-04-12T07:35:13.755Z,21.24
2023-04-12T07:37:44.167Z,21.27
2023-04-12T07:40:14.196Z,21.19
2023-04-12T07:42:44.632Z,21.46
2023-04-12T07:45:14.648Z,21.59
2023-04-12T07:47:45.144Z,21.65
2023-04-12T07:50:16.653Z,21.60
2023-04-12T07:52:47.176Z,21.61
2023-04-12T07:55:17.297Z,21.57
2023-04-12T07:57:47.898Z,21.61
2023-04-12T08:00:19.246Z,21.57
2023-04-12T08:02:49.806Z,21.61
2023-04-12T08:05:19.985Z,21.60
2023-04-12T08:07:50.390Z,21.60
2023-04-12T08:10:20.344Z,21.67
2023-04-12T08:12:50.859Z,21.68
2023-04-12T08:15:20.932Z,21.70
2023-04-12T08:17:51.466Z,21.57
2023-04-12T08:20:21.611Z,21.63
2023-04-12T08:22:53.333Z,21.80
2023-04-12T08:25:23.627Z,21.83
2023-04-12T08:27:54.043Z,21.81
2023-04-12T08:30:27.905Z,21.82
2023-04-12T08:32:58.440Z,21.92
2023-04-12T08:35:28.545Z,21.93
2023-04-12T08:37:58.406Z,21.87
2023-04-12T08:40:28.974Z,21.59
2023-04-12T08:43:02.369Z,21.77
2023-04-12T08:45:35.904Z,21.84
2023-04-12T08:48:08.955Z,21.60
2023-04-12T08:50:39.365Z,21.61
2023-04-12T08:53:13.161Z,21.72
2023-04-12T08:55:47.729Z,21.60
2023-04-12T08:58:18.579Z,21.56
2023-04-12T09:00:49.449Z,21.51
2023-04-12T09:03:20.177Z,21.44
2023-04-12T09:05:50.327Z,21.44
2023-04-12T09:08:20.785Z,21.40
2023-04-12T09:10:50.822Z,21.46
2023-04-12T09:13:34.220Z,21.44
2023-04-12T09:16:05.021Z,21.28
2023-04-12T09:18:51.272Z,21.40
2023-04-12T09:21:21.339Z,21.15
2023-04-12T09:24:14.017Z,20.83
2023-04-12T09:26:44.501Z,21.15
2023-04-12T09:29:26.559Z,21.42
2023-04-12T09:31:58.575Z,21.62
2023-04-12T09:34:29.290Z,21.67
2023-04-12T09:37:00.323Z,21.75
2023-04-12T09:39:38.773Z,21.60
2023-04-12T09:42:29.235Z,21.32
2023-04-12T09:45:02.919Z,21.37
2023-04-12T09:47:42.638Z,21.57
2023-04-12T09:50:30.882Z,21.82
2023-04-12T09:53:03.444Z,21.84
2023-04-12T09:55:34.041Z,21.82
2023-04-12T09:58:06.008Z,21.82
2023-04-12T10:00:38.077Z,21.91
2023-04-12T10:03:08.390Z,21.71
2023-04-12T10:05:41.566Z,21.97
2023-04-12T10:08:14.549Z,22.03
2023-04-12T10:10:47.742Z,22.14
2023-04-12T10:13:19.163Z,22.25
2023-04-12T10:15:52.314Z,22.36
2023-04-12T10:18:23.886Z,22.49
2023-04-12T10:20:54.562Z,22.48
2023-04-12T10:23:24.646Z,22.38
2023-04-12T10:25:58.233Z,22.17
2023-04-12T10:28:29.161Z,22.01
2023-04-12T10:31:00.139Z,21.94
2023-04-12T10:33:32.685Z,21.93
2023-04-12T10:36:12.196Z,22.24
2023-04-12T10:38:49.341Z,22.52
2023-04-12T10:41:21.790Z,22.62
2023-04-12T10:43:53.210Z,22.69
2023-04-12T10:46:40.636Z,22.70
2023-04-12T10:49:12.188Z,22.76
2023-04-12T10:52:01.435Z,22.87
2023-04-12T10:54:32.165Z,23.37
2023-04-12T10:57:03.985Z,23.95
2023-04-12T10:59:58.355Z,24.55
2023-04-12T11:02:28.907Z,24.74
2023-04-12T11:05:11.533Z,25.12
2023-04-12T11:07:55.673Z,25.07
2023-04-12T11:10:47.697Z,25.53
2023-04-12T11:13:24.025Z,26.14
2023-04-12T11:16:04.600Z,26.53
2023-04-12T11:18:38.103Z,27.21
2023-04-12T11:21:08.906Z,27.84
2023-04-12T11:23:41.114Z,28.06
2023-04-12T11:26:12.112Z,28.32
2023-04-12T11:28:42.648Z,28.83
2023-04-12T11:31:13.121Z,28.78
2023-04-12T11:33:43.571Z,29.05
2023-04-12T11:36:14.647Z,29.54
2023-04-12T11:38:47.221Z,30.03
2023-04-12T11:41:19.496Z,30.28
2023-04-12T11:43:50.544Z,31.07
2023-04-12T11:46:20.849Z,31.91
2023-04-12T11:48:52.136Z,32.49
2023-04-12T11:51:25.829Z,32.42
2023-04-12T11:53:58.033Z,32.59
2023-04-12T11:56:28.720Z,32.85
2023-04-12T11:59:00.234Z,33.28
2023-04-12T12:01:31.100Z,33.43
2023-04-12T12:04:02.364Z,33.51
2023-04-12T12:06:33.650Z,33.36
2023-04-12T12:09:04.520Z,33.29
2023-04-12T12:11:34.738Z,33.42
2023-04-12T12:14:05.743Z,34.19
2023-04-12T12:16:37.090Z,34.87
2023-04-12T12:19:07.178Z,35.16
2023-04-12T12:21:36.910Z,35.04
2023-04-12T12:24:07.094Z,35.57
2023-04-12T12:26:38.236Z,35.91
2023-04-12T12:29:10.366Z,36.24
2023-04-12T12:31:51.059Z,36.50
2023-04-12T12:34:21.296Z,36.71
2023-04-12T12:36:57.759Z,36.30
2023-04-12T12:39:28.396Z,36.70
2023-04-12T12:41:58.505Z,37.36
2023-04-12T12:44:28.936Z,37.95
2023-04-12T12:47:10.291Z,38.22
2023-04-12T12:49:44.521Z,38.20
2023-04-12T12:52:16.483Z,38.53
2023-04-12T12:54:48.204Z,38.76
2023-04-12T12:57:18.204Z,38.10
2023-04-12T12:59:48.763Z,37.45
2023-04-12T13:02:20.926Z,37.79
2023-04-12T13:04:52.030Z,38.25
2023-04-12T13:07:22.212Z,38.44
2023-04-12T13:09:52.778Z,38.13
2023-04-12T13:12:23.189Z,37.82
2023-04-12T13:15:00.354Z,38.37
2023-04-12T13:17:43.297Z,38.78
2023-04-12T13:20:14.291Z,38.75
2023-04-12T13:22:44.355Z,38.58
2023-04-12T13:25:15.110Z,38.74
2023-04-12T13:27:45.103Z,38.66
2023-04-12T13:30:15.684Z,38.67
2023-04-12T13:32:45.875Z,38.65
2023-04-12T13:35:16.541Z,38.83
2023-04-12T13:37:46.827Z,38.52
2023-04-12T13:40:17.358Z,37.83
2023-04-12T13:42:47.474Z,38.01
2023-04-12T13:45:17.929Z,38.06
2023-04-12T13:47:48.014Z,38.29
2023-04-12T13:50:18.473Z,38.92
2023-04-12T13:52:48.252Z,38.38
2023-04-12T13:55:18.715Z,39.66
2023-04-12T13:57:48.769Z,39.62
2023-04-12T14:00:19.944Z,39.82
2023-04-12T14:02:50.042Z,38.91
2023-04-12T14:05:20.705Z,39.10
2023-04-12T14:07:51.950Z,39.96
2023-04-12T14:10:22.379Z,39.45
2023-04-12T14:12:52.338Z,39.06
2023-04-12T14:15:22.937Z,39.49
2023-04-12T14:17:52.987Z,39.31
2023-04-12T14:20:24.976Z,40.33
2023-04-12T14:22:55.037Z,39.82
2023-04-12T14:25:25.539Z,39.64
2023-04-12T14:27:55.589Z,39.69
2023-04-12T14:30:26.093Z,39.50
2023-04-12T14:32:56.715Z,39.27
2023-04-12T14:35:27.010Z,39.00
2023-04-12T14:37:57.640Z,39.32
2023-04-12T14:40:27.784Z,39.12
2023-04-12T14:42:58.164Z,38.85
2023-04-12T14:45:28.680Z,39.03
2023-04-12T14:47:59.141Z,39.30
2023-04-12T14:50:29.191Z,39.53
2023-04-12T14:52:59.552Z,40.18
2023-04-12T14:55:30.098Z,39.37
2023-04-12T14:58:01.106Z,39.22
2023-04-12T15:00:32.107Z,39.55
2023-04-12T15:03:02.756Z,39.28
2023-04-12T15:05:33.076Z,38.33
2023-04-12T15:08:03.712Z,38.95
2023-04-12T15:10:33.773Z,39.22
2023-04-12T15:13:03.580Z,38.67
2023-04-12T15:15:34.007Z,38.46
2023-04-12T15:18:07.098Z,38.49
2023-04-12T15:20:38.178Z,38.45
2023-04-12T15:23:08.298Z,38.75
2023-04-12T15:25:38.681Z,38.38
2023-04-12T15:28:08.696Z,38.03
2023-04-12T15:30:39.398Z,38.12
2023-04-12T15:33:09.391Z,38.04
2023-04-12T15:35:39.858Z,38.98
2023-04-12T15:38:15.105Z,38.71
2023-04-12T15:40:47.796Z,38.38
2023-04-12T15:43:17.974Z,37.97
2023-04-12T15:45:49.200Z,37.64
2023-04-12T15:48:19.191Z,37.82
2023-04-12T15:50:52.466Z,38.12
2023-04-12T15:53:28.526Z,38.41
2023-04-12T15:55:59.051Z,38.67
2023-04-12T15:58:29.149Z,38.75
2023-04-12T16:00:59.655Z,38.44
2023-04-12T16:03:29.950Z,38.74
2023-04-12T16:06:00.502Z,38.60
2023-04-12T16:08:30.511Z,38.46
2023-04-12T16:11:00.954Z,38.33
2023-04-12T16:13:30.711Z,39.34
2023-04-12T16:16:01.218Z,39.16
2023-04-12T16:18:32.081Z,40.44
2023-04-12T16:21:02.611Z,40.93
2023-04-12T16:23:33.667Z,40.75
2023-04-12T16:26:03.886Z,41.08
2023-04-12T16:28:34.746Z,39.97
2023-04-12T16:31:06.143Z,40.26
2023-04-12T16:33:36.446Z,40.89
2023-04-12T16:36:07.127Z,40.98
2023-04-12T16:38:37.214Z,40.82
2023-04-12T16:41:08.396Z,41.35
2023-04-12T16:43:38.513Z,40.70
2023-04-12T16:46:09.261Z,40.80
2023-04-12T16:48:42.704Z,41.20
2023-04-12T16:51:13.130Z,41.41
2023-04-12T16:53:43.077Z,40.15
2023-04-12T16:56:13.569Z,39.19
2023-04-12T16:58:43.670Z,39.80
2023-04-12T17:01:17.779Z,39.89
2023-04-12T17:03:48.649Z,39.94
2023-04-12T17:06:20.786Z,38.96
2023-04-12T17:08:50.803Z,38.27
2023-04-12T17:11:21.293Z,38.70
2023-04-12T17:13:51.745Z,39.29
2023-04-12T17:16:22.493Z,39.64
2023-04-12T17:18:52.486Z,40.29
2023-04-12T17:21:23.540Z,40.93
2023-04-12T17:23:54.665Z,40.97
2023-04-12T17:26:27.573Z,41.22
2023-04-12T17:28:58.021Z,41.68
2023-04-12T17:31:28.980Z,42.09
2023-04-12T17:33:59.271Z,41.91
2023-04-12T17:36:32.668Z,41.69
2023-04-12T17:39:05.800Z,41.41
2023-04-12T17:41:36.421Z,40.99
2023-04-12T17:44:06.893Z,41.02
2023-04-12T17:46:37.698Z,40.92
2023-04-12T17:49:07.812Z,40.89
2023-04-12T17:51:38.293Z,41.03
2023-04-12T17:54:08.906Z,40.57
2023-04-12T17:56:39.796Z,39.42
2023-04-12T17:59:12.465Z,38.40
2023-04-12T18:01:44.257Z,38.86
2023-04-12T18:04:13.878Z,39.47
2023-04-12T18:06:44.026Z,39.89
2023-04-12T18:09:14.631Z,39.49
2023-04-12T18:11:44.712Z,39.38
2023-04-12T18:14:15.495Z,39.25
2023-04-12T18:16:45.560Z,39.26
2023-04-12T18:19:19.695Z,39.15
2023-04-12T18:21:49.847Z,38.88
2023-04-12T18:24:20.368Z,38.94
2023-04-12T18:26:50.774Z,39.53
2023-04-12T18:29:21.182Z,39.40
2023-04-12T18:31:51.273Z,39.35
2023-04-12T18:34:22.104Z,39.97
2023-04-12T18:36:52.377Z,39.73
2023-04-12T18:39:23.307Z,39.16
2023-04-12T18:41:53.418Z,39.40
2023-04-12T18:44:23.264Z,39.53
2023-04-12T18:46:53.712Z,39.50
2023-04-12T18:49:23.811Z,39.94
2023-04-12T18:51:59.213Z,40.17
2023-04-12T18:54:30.079Z,40.22
2023-04-12T18:57:02.922Z,40.22
2023-04-12T18:59:33.168Z,40.73
2023-04-12T19:02:03.851Z,40.04
2023-04-12T19:04:38.086Z,39.23
2023-04-12T19:07:09.069Z,37.78
2023-04-12T19:09:39.128Z,36.87
2023-04-12T19:12:10.093Z,34.88
2023-04-12T19:14:40.132Z,34.33
2023-04-12T19:17:10.659Z,33.74
2023-04-12T19:19:40.638Z,33.53
2023-04-12T19:22:11.127Z,33.12
2023-04-12T19:24:41.068Z,33.03
2023-04-12T19:27:11.585Z,32.89
2023-04-12T19:29:41.561Z,32.20
2023-04-12T19:32:15.207Z,31.70
2023-04-12T19:34:45.213Z,31.60
2023-04-12T19:37:15.702Z,31.72
2023-04-12T19:39:45.860Z,31.52
2023-04-12T19:42:16.979Z,31.47
2023-04-12T19:44:47.031Z,31.65
2023-04-12T19:47:17.598Z,31.44
2023-04-12T19:49:48.584Z,31.03
2023-04-12T19:52:22.414Z,30.85
2023-04-12T19:54:53.718Z,30.52
2023-04-12T19:57:25.481Z,30.34
2023-04-12T19:59:56.519Z,30.45
2023-04-12T20:02:27.243Z,30.27
2023-04-12T20:04:57.721Z,30.15
2023-04-12T20:07:28.208Z,29.78
2023-04-12T20:09:59.915Z,29.58
2023-04-12T20:12:30.561Z,29.32
2023-04-12T20:15:01.844Z,29.20
2023-04-12T20:17:34.006Z,28.98
2023-04-12T20:20:07.972Z,28.85
2023-04-12T20:22:40.549Z,28.71
2023-04-12T20:25:14.306Z,28.57
2023-04-12T20:27:52.685Z,28.35
2023-04-12T20:30:23.793Z,28.10
2023-04-12T20:32:56.024Z,27.86
2023-04-12T20:35:26.815Z,27.66
2023-04-12T20:37:57.654Z,27.47
2023-04-12T20:40:30.680Z,27.27
2023-04-12T20:43:02.151Z,27.15
2023-04-12T20:45:32.191Z,26.96
2023-04-12T20:48:02.714Z,26.78
2023-04-12T20:50:34.097Z,26.64
2023-04-12T20:53:05.020Z,26.50
2023-04-12T20:55:35.933Z,26.32
2023-04-12T20:58:08.578Z,26.19
2023-04-12T21:00:39.118Z,26.14
2023-04-12T21:03:11.926Z,26.16
2023-04-12T21:05:42.393Z,26.16
2023-04-12T21:08:13.065Z,26.09
2023-04-12T21:10:43.926Z,26.00
2023-04-12T21:13:15.349Z,25.97
2023-04-12T21:15:45.345Z,26.20
2023-04-12T21:18:16.024Z,26.15
2023-04-12T21:20:45.988Z,26.14
2023-04-12T21:23:20.082Z,26.19
2023-04-12T21:25:50.817Z,26.15
2023-04-12T21:28:21.972Z,26.25
2023-04-12T21:30:56.094Z,26.14
2023-04-12T21:33:26.791Z,26.08
2023-04-12T21:35:57.622Z,25.99
2023-04-12T21:38:28.278Z,25.86
2023-04-12T21:40:59.899Z,25.85
2023-04-12T21:43:29.946Z,25.83
2023-04-12T21:45:59.674Z,25.76
2023-04-12T21:48:32.660Z,25.68
2023-04-12T21:51:03.149Z,25.60
2023-04-12T21:53:33.156Z,25.50
2023-04-12T21:56:03.671Z,25.35
2023-04-12T21:58:34.576Z,25.18
2023-04-12T22:01:05.075Z,24.88
2023-04-12T22:03:35.170Z,24.64
2023-04-12T22:06:05.868Z,24.44
2023-04-12T22:08:36.041Z,24.32
2023-04-12T22:11:06.594Z,24.23
2023-04-12T22:13:42.486Z,24.14
2023-04-12T22:16:17.852Z,24.09
2023-04-12T22:18:48.065Z,24.02
2023-04-12T22:21:18.897Z,23.98
2023-04-12T22:23:49.011Z,23.90
2023-04-12T22:26:19.426Z,23.85
2023-04-12T22:28:50.934Z,23.71
2023-04-12T22:31:23.842Z,23.69
2023-04-12T22:33:56.267Z,23.69
2023-04-12T22:36:29.304Z,23.64
2023-04-12T22:38:59.647Z,23.64
2023-04-12T22:41:34.068Z,23.47
2023-04-12T22:44:04.166Z,23.41
2023-04-12T22:46:34.838Z,23.27
2023-04-12T22:49:05.881Z,23.24
2023-04-12T22:51:36.621Z,23.21
2023-04-12T22:54:09.786Z,23.29
2023-04-12T22:56:49.245Z,23.33
2023-04-12T22:59:24.236Z,23.30
2023-04-12T23:01:55.104Z,23.22
2023-04-12T23:04:25.231Z,23.14
2023-04-12T23:06:58.766Z,23.09
2023-04-12T23:09:29.908Z,22.97
2023-04-12T23:12:00.039Z,22.97
2023-04-12T23:14:31.105Z,22.84
2023-04-12T23:17:02.184Z,22.80
2023-04-12T23:19:34.313Z,22.81
2023-04-12T23:22:04.898Z,22.74
2023-04-12T23:24:35.516Z,22.73
2023-04-12T23:27:05.638Z,22.74
2023-04-12T23:29:36.214Z,22.65
2023-04-12T23:32:06.383Z,22.65
2023-04-12T23:34:36.969Z,22.64
2023-04-12T23:37:06.945Z,22.59
2023-04-12T23:39:37.359Z,22.62
2023-04-12T23:42:07.265Z,22.61
2023-04-12T23:44:38.080Z,22.65
2023-04-12T23:47:08.182Z,22.65
2023-04-12T23:49:38.633Z,22.59
2023-04-12T23:52:08.570Z,22.48
2023-04-12T23:54:38.995Z,22.38
2023-04-12T23:57:09.308Z,22.34
2023-04-12T23:59:40.074Z,22.28
